createdAt,value
2018-07-16T00:01:14.727Z,76.699997
2018-07-16T00:06:16.977Z,76.900002
2018-07-16T00:16:21.549Z,77.400002
2018-07-16T00:21:23.931Z,77.699997
2018-07-16T00:26:26.322Z,78.199997
2018-07-16T00:31:28.492Z,78.400002
2018-07-16T00:36:30.866Z,78.5
2018-07-16T00:41:33.208Z,78.400002
2018-07-16T00:46:35.542Z,78.400002
2018-07-16T00:51:37.616Z,78.300003
2018-07-16T00:56:39.957Z,78.599998
2018-07-16T01:01:42.412Z,79.5
2018-07-16T01:06:44.578Z,80.300003
2018-07-16T01:11:46.915Z,80.599998
2018-07-16T01:16:49.115Z,80
2018-07-16T01:21:51.490Z,80.199997
2018-07-16T01:26:53.696Z,79.800003
2018-07-16T01:31:56.054Z,78.800003
2018-07-16T01:36:58.470Z,78.699997
2018-07-16T01:42:00.662Z,78.300003
2018-07-16T01:47:02.982Z,78.300003
2018-07-16T01:52:05.234Z,78.300003
2018-07-16T01:57:07.494Z,78.199997
2018-07-16T02:02:09.787Z,78.400002
2018-07-16T02:07:12.045Z,78.599998
2018-07-16T02:12:14.394Z,79.199997
2018-07-16T02:22:18.978Z,79.300003
2018-07-16T02:27:21.349Z,79.800003
2018-07-16T02:32:23.563Z,80.300003
2018-07-16T02:37:25.860Z,80.5
2018-07-16T02:42:28.211Z,82.400002
2018-07-16T02:47:30.399Z,83.599998
2018-07-16T02:52:32.668Z,85
2018-07-16T02:57:35.024Z,86.099998
2018-07-16T03:02:37.400Z,84.900002
2018-07-16T03:07:39.636Z,83.900002
2018-07-16T03:12:41.883Z,81.599998
2018-07-16T03:17:44.207Z,81
2018-07-16T03:22:46.554Z,81.300003
2018-07-16T03:27:48.756Z,82
2018-07-16T03:32:51.091Z,81.199997
2018-07-16T03:37:53.367Z,81.400002
2018-07-16T03:42:55.718Z,81.199997
2018-07-16T03:47:58.118Z,81.199997
2018-07-16T03:53:00.220Z,81.400002
2018-07-16T03:58:02.709Z,82.099998
2018-07-16T04:03:04.786Z,82.900002
2018-07-16T04:08:07.087Z,82.5
2018-07-16T04:13:09.522Z,81.400002
2018-07-16T04:18:11.784Z,82
2018-07-16T04:23:14.071Z,81.300003
2018-07-16T04:28:16.375Z,81.800003
2018-07-16T04:33:18.588Z,82.5
2018-07-16T04:38:20.897Z,80.400002
2018-07-16T04:43:23.220Z,80.199997
2018-07-16T04:48:25.507Z,78.199997
2018-07-16T04:53:27.867Z,75.099998
2018-07-16T04:58:30.011Z,73.199997
2018-07-16T05:03:32.405Z,71.300003
2018-07-16T05:08:34.639Z,70.599998
2018-07-16T05:13:36.984Z,71.5
2018-07-16T05:18:39.364Z,72.599998
2018-07-16T05:29:12.708Z,72.199997
2018-07-16T05:34:15.015Z,71.699997
2018-07-16T05:39:17.402Z,74.199997
2018-07-16T05:44:19.677Z,73.099998
2018-07-16T05:49:21.835Z,69.599998
2018-07-16T05:54:24.121Z,71.199997
2018-07-16T05:59:26.608Z,72.699997
2018-07-16T06:04:28.847Z,65.800003
2018-07-16T06:09:31.064Z,61.400002
2018-07-16T06:14:33.409Z,61
2018-07-16T06:19:35.678Z,56.599998
2018-07-16T06:24:37.958Z,59
2018-07-16T06:29:40.366Z,56.900002
2018-07-16T06:34:42.646Z,53.299999
2018-07-16T06:39:45.068Z,50.5
2018-07-16T06:44:47.150Z,49.799999
2018-07-16T06:49:49.479Z,47.099998
2018-07-16T06:54:51.808Z,48.900002
2018-07-16T06:59:54.020Z,46.900002
2018-07-16T07:04:56.513Z,45.200001
2018-07-16T07:09:58.704Z,43.700001
2018-07-16T07:15:00.961Z,41.799999
2018-07-16T07:20:03.205Z,44.900002
2018-07-16T07:25:05.591Z,40.099998
2018-07-16T07:30:07.812Z,40.400002
2018-07-16T07:35:10.143Z,40.799999
2018-07-16T07:40:12.398Z,40
2018-07-16T07:45:14.724Z,38.599998
2018-07-16T07:50:16.974Z,37.200001
2018-07-16T07:55:19.607Z,34.700001
2018-07-16T08:00:21.664Z,35.799999
2018-07-16T08:05:23.849Z,33.599998
2018-07-16T08:10:26.033Z,33.400002
2018-07-16T08:15:28.375Z,34.400002
2018-07-16T08:20:30.773Z,32.400002
2018-07-16T08:25:33.095Z,31.200001
2018-07-16T08:30:35.282Z,31.700001
2018-07-16T08:35:37.629Z,32.099998
2018-07-16T08:40:39.848Z,32.200001
2018-07-16T08:45:42.204Z,29.700001
2018-07-16T08:50:44.497Z,30
2018-07-16T08:55:46.840Z,27
2018-07-16T09:00:49.165Z,28.799999
2018-07-16T09:05:51.322Z,28.9
2018-07-16T09:10:53.792Z,26.6
2018-07-16T09:15:55.887Z,28.1
2018-07-16T09:20:58.209Z,25.200001
2018-07-16T09:26:00.567Z,27.6
2018-07-16T09:31:02.873Z,28.799999
2018-07-16T09:36:05.097Z,29.299999
2018-07-16T09:41:07.520Z,25.700001
2018-07-16T09:46:09.815Z,28.5
2018-07-16T09:51:11.975Z,26.299999
2018-07-16T09:56:14.351Z,23.9
2018-07-16T10:01:16.564Z,23.200001
2018-07-16T10:06:18.984Z,23.4
2018-07-16T10:11:21.245Z,25.4
2018-07-16T10:16:23.585Z,23.799999
2018-07-16T10:21:25.713Z,24.700001
2018-07-16T10:26:28.117Z,23.5
2018-07-16T10:31:30.288Z,24.1
2018-07-16T10:36:32.644Z,20.5
2018-07-16T10:41:34.866Z,20.799999
2018-07-16T10:46:37.284Z,22.6
2018-07-16T10:51:39.465Z,23
2018-07-16T10:56:41.807Z,21.1
2018-07-16T11:01:44.215Z,20.700001
2018-07-16T11:06:46.479Z,23.299999
2018-07-16T11:11:48.645Z,23.299999
2018-07-16T11:16:51.037Z,24.1
2018-07-16T11:21:53.345Z,21.6
2018-07-16T11:26:55.672Z,23.5
2018-07-16T11:31:57.861Z,23.6
2018-07-16T11:37:00.313Z,28.299999
2018-07-16T11:42:02.451Z,26.700001
2018-07-16T11:47:04.705Z,23.6
2018-07-16T11:52:07.178Z,21.299999
2018-07-16T11:57:09.477Z,21.5
2018-07-16T12:02:11.612Z,18.5
2018-07-16T12:07:13.950Z,19.4
2018-07-16T12:12:16.213Z,19.6
2018-07-16T12:17:18.654Z,20.200001
2018-07-16T12:22:20.816Z,22.4
2018-07-16T12:27:23.213Z,20.700001
2018-07-16T12:32:25.440Z,19.799999
2018-07-16T12:37:27.873Z,21
2018-07-16T12:42:29.988Z,20
2018-07-16T12:47:32.428Z,19
2018-07-16T12:52:34.711Z,20.4
2018-07-16T12:57:36.817Z,18.200001
2018-07-16T13:02:39.204Z,19.9
2018-07-16T13:07:41.538Z,20.799999
2018-07-16T13:12:43.887Z,23.200001
2018-07-16T13:22:48.389Z,21.6
2018-07-16T13:27:50.751Z,21.6
2018-07-16T13:32:52.965Z,20.1
2018-07-16T13:37:55.251Z,21.200001
2018-07-16T13:42:57.469Z,19.6
2018-07-16T13:47:59.838Z,21.6
2018-07-16T13:53:02.187Z,20.5
2018-07-16T13:58:04.476Z,23.1
2018-07-16T14:03:06.789Z,24.4
2018-07-16T14:08:08.961Z,26
2018-07-16T14:13:11.255Z,24.700001
2018-07-16T14:18:13.609Z,22.1
2018-07-16T14:23:16.022Z,23.1
2018-07-16T14:33:20.496Z,21
2018-07-16T14:38:22.883Z,20.799999
2018-07-16T14:43:25.160Z,22.4
2018-07-16T14:48:27.338Z,20.799999
2018-07-16T14:53:29.667Z,23.200001
2018-07-16T14:58:32.006Z,23.6
2018-07-16T15:03:34.211Z,26.1
2018-07-16T15:08:36.704Z,27.9
2018-07-16T15:13:38.851Z,28.6
2018-07-16T15:18:41.170Z,33
2018-07-16T15:23:43.487Z,29.4
2018-07-16T15:28:45.810Z,28.200001
2018-07-16T15:33:48.024Z,27.200001
2018-07-16T15:38:50.281Z,26.299999
2018-07-16T15:43:52.679Z,27
2018-07-16T15:48:54.882Z,25.5
2018-07-16T15:53:57.136Z,23.1
2018-07-16T15:58:59.634Z,22.700001
2018-07-16T16:04:01.870Z,25.5
2018-07-16T16:09:04.161Z,26.5
2018-07-16T16:14:06.532Z,26.6
2018-07-16T16:19:08.728Z,25.799999
2018-07-16T16:24:10.909Z,25.5
2018-07-16T16:29:13.457Z,27.5
2018-07-16T16:34:15.627Z,28.200001
2018-07-16T16:39:17.814Z,29.5
2018-07-16T16:44:20.171Z,29.6
2018-07-16T16:49:22.602Z,35.5
2018-07-16T16:54:24.905Z,38.400002
2018-07-16T16:59:27.144Z,41.299999
2018-07-16T17:04:29.324Z,52.5
2018-07-16T17:09:31.579Z,68.199997
2018-07-16T17:14:33.982Z,84.800003
2018-07-16T17:19:36.428Z,89
2018-07-16T17:24:38.407Z,94.099998
2018-07-16T17:29:40.883Z,95.300003
2018-07-16T17:34:43.133Z,99.900002
2018-07-16T17:39:45.343Z,99.900002
2018-07-16T17:44:47.802Z,99.900002
2018-07-16T17:49:50.026Z,99.900002
2018-07-16T17:54:52.281Z,99.900002
2018-07-16T17:59:54.702Z,99.900002
2018-07-16T18:04:56.847Z,99.900002
2018-07-16T18:09:59.147Z,99.900002
2018-07-16T18:15:01.481Z,99.900002
2018-07-16T18:20:03.750Z,99.900002
2018-07-16T18:25:06.065Z,99.900002
2018-07-16T18:30:08.251Z,99.900002
2018-07-16T18:35:10.904Z,99.900002
2018-07-16T18:40:12.889Z,99.900002
2018-07-16T18:45:15.221Z,99.900002
2018-07-16T18:50:17.593Z,99.900002
2018-07-16T18:55:19.982Z,99.900002
2018-07-16T19:00:22.064Z,99.900002
2018-07-16T19:05:24.385Z,99.900002
2018-07-16T19:10:26.720Z,99.900002
2018-07-16T19:15:29.127Z,99.900002
2018-07-16T19:20:31.363Z,99.900002
2018-07-16T19:25:33.549Z,99.900002
2018-07-16T19:30:35.900Z,99.900002
2018-07-16T19:35:38.233Z,99.900002
2018-07-16T19:40:40.927Z,99.900002
2018-07-16T19:45:42.846Z,99.900002
2018-07-16T19:50:45.166Z,99.900002
2018-07-16T19:55:47.375Z,99.900002
2018-07-16T20:00:49.599Z,99.900002
2018-07-16T20:05:51.844Z,99.900002
2018-07-16T20:10:54.398Z,99.900002
2018-07-16T20:15:56.532Z,99.900002
2018-07-16T20:20:58.837Z,99.900002
2018-07-16T20:26:01.110Z,99.900002
2018-07-16T20:31:03.354Z,99.900002
2018-07-16T20:36:05.746Z,99.900002
2018-07-16T20:41:07.945Z,99.900002
2018-07-16T20:46:10.339Z,99.900002
2018-07-16T20:51:12.595Z,99.900002
2018-07-16T20:56:14.841Z,99.900002
2018-07-16T21:01:17.186Z,99.900002
2018-07-16T21:06:19.606Z,99.900002
2018-07-16T21:11:21.723Z,99.900002
2018-07-16T21:16:24.061Z,99.900002
2018-07-16T21:21:26.380Z,99.900002
2018-07-16T21:26:28.707Z,99.900002
2018-07-16T21:31:30.935Z,99.900002
2018-07-16T21:36:33.441Z,99.900002
2018-07-16T21:41:35.682Z,99.900002
2018-07-16T21:46:37.843Z,99.900002
2018-07-16T21:51:40.153Z,99.900002
2018-07-16T21:56:42.509Z,99.900002
2018-07-16T22:01:44.756Z,99.900002
2018-07-16T22:06:47.015Z,99.900002
2018-07-16T22:11:49.264Z,99.900002
2018-07-16T22:16:51.747Z,99.900002
2018-07-16T22:21:53.935Z,99.900002
2018-07-16T22:26:56.266Z,99.900002
2018-07-16T22:31:58.601Z,99.900002
2018-07-16T22:37:00.788Z,99.900002
2018-07-16T22:42:03.057Z,99.900002
2018-07-16T22:52:07.809Z,99.900002
2018-07-16T22:57:10.004Z,99.900002
2018-07-16T23:02:12.360Z,99.900002
2018-07-16T23:07:14.605Z,99.900002
2018-07-16T23:12:16.932Z,99.900002
2018-07-16T23:17:19.076Z,99.900002
2018-07-16T23:22:21.511Z,99.900002
2018-07-16T23:27:23.764Z,99.900002
2018-07-16T23:32:26.179Z,99.900002
2018-07-16T23:37:28.297Z,99.900002
2018-07-16T23:42:30.558Z,99.900002
2018-07-16T23:47:32.984Z,99.900002
2018-07-16T23:52:35.307Z,99.900002
2018-07-16T23:57:37.567Z,99.900002
